Time;durP1;ratioP1;P1;durP2;ratioP2;P2;SDS_P1;SDS_P2;PMS_P1;PMS_P2;Temp;Humidity;BMP_temperature;BMP_pressure;BME280_temperature;BME280_humidity;BME280_pressure;Samples;Min_cycle;Max_cycle;Signal;HPM_P1;HPM_P2
2021/05/19 00:02:17;;;;;;;11.97;10.13;;;8.60;99.90;;;;;;5083857;28;20786;-44
2021/05/19 00:04:44;;;;;;;10.10;8.77;;;8.60;99.90;;;;;;5073764;28;20241;-45
2021/05/19 00:07:10;;;;;;;15.37;10.07;;;8.60;99.90;;;;;;5073472;28;20279;-47
2021/05/19 00:09:36;;;;;;;11.70;10.03;;;8.60;99.90;;;;;;5085935;28;20202;-48
2021/05/19 00:12:02;;;;;;;12.37;9.73;;;8.60;99.90;;;;;;5082379;28;20178;-47
2021/05/19 00:14:29;;;;;;;10.97;9.23;;;8.60;99.90;;;;;;5082860;28;20775;-46
2021/05/19 00:16:55;;;;;;;12.93;9.57;;;8.50;99.90;;;;;;5083471;28;20698;-46
2021/05/19 00:19:22;;;;;;;10.93;9.20;;;8.50;99.90;;;;;;5084897;28;20701;-46
2021/05/19 00:21:48;;;;;;;11.80;10.37;;;8.40;99.90;;;;;;5072278;28;20210;-50
2021/05/19 00:24:14;;;;;;;10.37;9.27;;;8.40;99.90;;;;;;5083296;28;20687;-45
2021/05/19 00:26:41;;;;;;;10.93;9.63;;;8.30;99.90;;;;;;5087030;28;20194;-44
2021/05/19 00:29:12;;;;;;;12.07;9.57;;;8.40;99.90;;;;;;5076130;28;20198;-47
2021/05/19 00:31:39;;;;;;;10.37;9.37;;;8.30;99.90;;;;;;5086120;28;20189;-47
2021/05/19 00:34:06;;;;;;;11.93;9.70;;;8.40;99.90;;;;;;5081233;28;20267;-45
2021/05/19 00:36:33;;;;;;;15.03;10.03;;;8.40;99.90;;;;;;5072358;28;20213;-47
2021/05/19 00:38:59;;;;;;;10.87;9.77;;;8.40;99.90;;;;;;5080561;28;20198;-48
2021/05/19 00:41:25;;;;;;;11.53;9.47;;;8.30;99.90;;;;;;5084735;28;20208;-47
2021/05/19 00:43:51;;;;;;;12.30;9.40;;;8.30;99.90;;;;;;5082340;28;20264;-46
2021/05/19 00:46:17;;;;;;;9.80;8.80;;;8.30;99.90;;;;;;5078098;28;20209;-45
2021/05/19 00:48:44;;;;;;;10.17;8.53;;;8.20;99.90;;;;;;5081805;28;20251;-47
2021/05/19 00:51:12;;;;;;;10.17;9.07;;;8.20;99.90;;;;;;5065183;28;20572;-45
2021/05/19 00:53:39;;;;;;;11.37;9.30;;;8.10;99.90;;;;;;5082398;28;20195;-45
2021/05/19 00:56:05;;;;;;;10.73;9.23;;;8.10;99.90;;;;;;5075144;28;20210;-48
2021/05/19 00:58:33;;;;;;;10.00;9.00;;;8.10;99.90;;;;;;5081182;28;20597;-45
2021/05/19 01:00:59;;;;;;;10.27;9.27;;;8.10;99.90;;;;;;5073864;28;20210;-46
2021/05/19 01:03:33;;;;;;;11.43;9.43;;;8.00;99.90;;;;;;5081164;28;20243;-45
2021/05/19 01:06:02;;;;;;;9.80;8.80;;;8.00;99.90;;;;;;5066241;28;20695;-46
2021/05/19 01:11:26;;;;;;;11.17;9.47;;;7.90;99.90;;;;;;5049137;28;20201;-51
2021/05/19 01:13:53;;;;;;;11.47;9.47;;;7.80;99.90;;;;;;5084073;28;20190;-46
2021/05/19 01:16:19;;;;;;;12.83;10.23;;;7.80;99.90;;;;;;5082012;28;20218;-45
2021/05/19 01:18:45;;;;;;;11.77;9.43;;;7.80;99.90;;;;;;5082649;28;20659;-45
2021/05/19 01:21:12;;;;;;;12.63;10.10;;;7.80;99.90;;;;;;5077427;28;20560;-46
2021/05/19 01:23:40;;;;;;;11.70;9.87;;;7.80;99.90;;;;;;5080942;28;20214;-45
2021/05/19 01:26:09;;;;;;;11.23;9.87;;;7.80;99.90;;;;;;5083485;28;20233;-44
2021/05/19 01:28:35;;;;;;;16.43;11.50;;;7.80;99.90;;;;;;5084001;28;20188;-45
2021/05/19 01:31:02;;;;;;;14.80;12.67;;;7.80;99.90;;;;;;5084163;28;20293;-45
2021/05/19 01:33:31;;;;;;;16.90;12.50;;;7.80;99.90;;;;;;5077814;28;20494;-46
2021/05/19 01:35:57;;;;;;;13.73;11.77;;;7.80;99.90;;;;;;5084764;28;20218;-47
2021/05/19 01:38:24;;;;;;;16.27;11.63;;;7.80;99.90;;;;;;5070354;28;20907;-44
2021/05/19 01:40:51;;;;;;;17.50;12.73;;;7.80;99.90;;;;;;5085386;28;20565;-45
2021/05/19 01:43:17;;;;;;;17.10;12.33;;;7.80;99.90;;;;;;5080490;28;20274;-45
2021/05/19 01:46:04;;;;;;;15.33;11.57;;;7.80;99.90;;;;;;5084229;28;20313;-45
2021/05/19 01:48:33;;;;;;;19.03;12.50;;;7.80;99.90;;;;;;5079603;28;20303;-47
2021/05/19 01:51:00;;;;;;;16.27;11.87;;;7.70;99.90;;;;;;5086436;28;20194;-44
2021/05/19 01:53:28;;;;;;;16.37;11.93;;;7.70;99.90;;;;;;5069364;28;20455;-46
2021/05/19 01:55:56;;;;;;;16.80;12.40;;;7.70;99.90;;;;;;5087296;28;20276;-45
2021/05/19 01:58:23;;;;;;;18.50;14.20;;;7.70;99.90;;;;;;5081387;28;20280;-45
2021/05/19 02:00:51;;;;;;;15.33;12.43;;;7.70;99.90;;;;;;5084758;28;20224;-44
2021/05/19 02:03:25;;;;;;;15.67;12.13;;;7.70;99.90;;;;;;5076936;28;20896;-47
2021/05/19 02:06:05;;;;;;;15.43;12.73;;;7.70;99.90;;;;;;5084028;28;20224;-47
2021/05/19 02:08:31;;;;;;;18.07;12.87;;;7.70;99.90;;;;;;5070718;28;20218;-45
2021/05/19 02:10:59;;;;;;;19.43;14.03;;;7.70;99.90;;;;;;5086582;28;20182;-45
2021/05/19 02:13:30;;;;;;;19.17;14.37;;;7.70;99.90;;;;;;5082387;28;20228;-45
2021/05/19 02:15:56;;;;;;;19.57;14.80;;;7.70;99.90;;;;;;5087299;28;20691;-46
2021/05/19 02:18:25;;;;;;;19.43;14.40;;;7.70;99.90;;;;;;5079243;28;20218;-45
2021/05/19 02:20:51;;;;;;;18.77;14.87;;;7.70;99.90;;;;;;5085021;28;20202;-49
2021/05/19 02:23:17;;;;;;;19.53;14.93;;;7.70;99.90;;;;;;5060959;28;20217;-48
2021/05/19 02:25:44;;;;;;;22.23;15.43;;;7.70;99.90;;;;;;5085381;28;20695;-45
2021/05/19 02:28:11;;;;;;;17.73;14.00;;;7.70;99.90;;;;;;5080327;28;20187;-46
2021/05/19 02:30:45;;;;;;;19.23;15.07;;;7.70;99.90;;;;;;5084764;28;20197;-48
2021/05/19 02:33:19;;;;;;;22.97;15.60;;;7.70;99.90;;;;;;5113782;27;20202;-50
2021/05/19 02:35:46;;;;;;;21.30;15.07;;;7.70;99.90;;;;;;5065109;28;20222;-44
2021/05/19 02:38:13;;;;;;;18.23;14.90;;;7.70;99.90;;;;;;5077533;28;20269;-44
2021/05/19 02:40:39;;;;;;;19.73;15.70;;;7.80;99.90;;;;;;5069456;28;20416;-44
2021/05/19 02:43:06;;;;;;;21.37;15.13;;;7.80;99.90;;;;;;5084177;28;20690;-48
2021/05/19 02:45:38;;;;;;;20.80;16.27;;;7.80;99.90;;;;;;5084568;28;20458;-45
2021/05/19 02:48:04;;;;;;;21.20;15.73;;;7.80;99.90;;;;;;5085053;28;20225;-48
2021/05/19 02:50:31;;;;;;;21.20;15.07;;;7.80;99.90;;;;;;5078308;28;20204;-44
2021/05/19 02:52:57;;;;;;;19.27;15.57;;;7.80;99.90;;;;;;5084603;28;20243;-45
2021/05/19 02:55:23;;;;;;;20.20;15.03;;;7.80;99.90;;;;;;5068566;28;20457;-44
2021/05/19 02:57:50;;;;;;;21.63;15.53;;;7.80;99.90;;;;;;5085151;28;20194;-48
2021/05/19 03:00:17;;;;;;;21.57;16.10;;;7.80;99.90;;;;;;5082171;28;20241;-50
2021/05/19 03:02:44;;;;;;;21.13;16.83;;;7.80;99.90;;;;;;5085205;28;20186;-46
2021/05/19 03:05:11;;;;;;;21.53;16.13;;;7.70;99.90;;;;;;5081747;28;20315;-46
2021/05/19 03:07:37;;;;;;;22.80;16.47;;;7.70;99.90;;;;;;5080285;28;20198;-45
2021/05/19 03:10:04;;;;;;;21.57;17.00;;;7.70;99.90;;;;;;5080176;28;20323;-46
2021/05/19 03:12:31;;;;;;;22.03;16.67;;;7.70;99.90;;;;;;5064687;28;20884;-43
2021/05/19 03:14:57;;;;;;;22.17;16.83;;;7.60;99.90;;;;;;5074264;28;20852;-44
2021/05/19 03:17:23;;;;;;;19.20;15.47;;;7.70;99.90;;;;;;5082187;28;20209;-50
2021/05/19 03:19:50;;;;;;;22.30;16.40;;;7.60;99.90;;;;;;5078765;28;20190;-51
2021/05/19 03:22:16;;;;;;;19.13;15.97;;;7.60;99.90;;;;;;5081028;28;20206;-45
2021/05/19 03:24:42;;;;;;;24.47;18.07;;;7.60;99.90;;;;;;5083744;28;20209;-47
2021/05/19 03:27:09;;;;;;;21.20;16.53;;;7.60;99.90;;;;;;5071805;28;20194;-44
2021/05/19 03:29:35;;;;;;;22.73;16.90;;;7.60;99.90;;;;;;5081668;28;20194;-49
2021/05/19 03:32:01;;;;;;;22.80;17.60;;;7.60;99.90;;;;;;5082591;28;20190;-46
2021/05/19 03:34:27;;;;;;;22.77;16.43;;;7.60;99.90;;;;;;5083683;28;20698;-47
2021/05/19 03:36:54;;;;;;;22.07;16.57;;;7.60;99.90;;;;;;5075402;28;20214;-46
2021/05/19 03:39:21;;;;;;;25.83;18.43;;;7.60;99.90;;;;;;5083073;28;20272;-46
2021/05/19 03:41:47;;;;;;;26.30;17.33;;;7.60;99.90;;;;;;5067792;28;20217;-46
2021/05/19 03:44:13;;;;;;;21.10;16.50;;;7.60;99.90;;;;;;5082911;28;20197;-48
2021/05/19 03:46:39;;;;;;;18.83;15.63;;;7.60;99.90;;;;;;5083019;28;20190;-46
2021/05/19 03:49:05;;;;;;;26.63;17.70;;;7.70;99.90;;;;;;5080877;28;20193;-48
2021/05/19 03:51:32;;;;;;;23.40;18.40;;;7.60;99.90;;;;;;5082586;28;20628;-44
2021/05/19 03:53:59;;;;;;;23.77;17.17;;;7.70;99.90;;;;;;5074632;28;20194;-47
2021/05/19 03:56:25;;;;;;;22.43;16.80;;;7.70;99.90;;;;;;5082876;28;20373;-45
2021/05/19 03:58:51;;;;;;;23.60;18.30;;;7.70;99.90;;;;;;5067190;28;20213;-45
2021/05/19 04:01:17;;;;;;;24.07;17.97;;;7.80;99.90;;;;;;5077800;28;20239;-44
2021/05/19 04:03:44;;;;;;;23.83;17.60;;;7.80;99.90;;;;;;5081248;28;20731;-47
2021/05/19 04:06:10;;;;;;;23.97;17.40;;;7.80;99.90;;;;;;5082227;28;20261;-46
2021/05/19 04:08:38;;;;;;;24.27;18.00;;;7.80;99.90;;;;;;5074753;28;20206;-49
2021/05/19 04:11:07;;;;;;;23.80;18.17;;;7.90;99.90;;;;;;5083566;28;20193;-47
2021/05/19 04:13:34;;;;;;;24.80;18.03;;;7.90;99.90;;;;;;5072966;28;20214;-49
2021/05/19 04:16:00;;;;;;;25.20;18.53;;;7.90;99.90;;;;;;5083139;28;20214;-47
2021/05/19 04:18:27;;;;;;;29.03;19.70;;;7.90;99.90;;;;;;5085529;28;20220;-48
2021/05/19 04:20:53;;;;;;;26.97;19.10;;;7.90;99.90;;;;;;5081131;28;20973;-45
2021/05/19 04:23:21;;;;;;;24.03;18.10;;;7.90;99.90;;;;;;5080289;28;20201;-44
2021/05/19 04:25:47;;;;;;;24.43;18.23;;;7.90;99.90;;;;;;5081623;28;20220;-51
2021/05/19 04:28:14;;;;;;;27.00;18.37;;;7.90;99.90;;;;;;5072662;28;20201;-47
2021/05/19 04:30:40;;;;;;;20.47;16.50;;;7.90;99.90;;;;;;5082513;28;20622;-49
2021/05/19 04:33:07;;;;;;;22.40;17.77;;;7.90;99.90;;;;;;5083702;28;20197;-45
2021/05/19 04:35:33;;;;;;;20.77;17.47;;;7.80;99.90;;;;;;5084182;28;20251;-49
2021/05/19 04:38:01;;;;;;;26.93;18.80;;;7.80;99.90;;;;;;5082118;28;20201;-45
2021/05/19 04:40:27;;;;;;;24.03;18.13;;;7.90;99.90;;;;;;5079974;28;20213;-44
2021/05/19 04:42:54;;;;;;;23.83;18.20;;;7.90;99.90;;;;;;5079994;28;20833;-44
2021/05/19 04:45:21;;;;;;;24.73;18.37;;;7.90;99.90;;;;;;5074393;28;20222;-45
2021/05/19 04:47:47;;;;;;;24.47;17.60;;;7.90;99.90;;;;;;5082940;28;20201;-44
2021/05/19 04:50:15;;;;;;;22.70;17.10;;;8.00;99.90;;;;;;5086309;28;20190;-45
2021/05/19 04:52:41;;;;;;;21.47;17.20;;;8.00;99.90;;;;;;5083559;28;20198;-45
2021/05/19 04:55:09;;;;;;;22.47;16.93;;;8.00;99.90;;;;;;5080404;28;20232;-45
2021/05/19 04:57:35;;;;;;;23.33;18.27;;;8.10;99.90;;;;;;5085439;28;20194;-47
2021/05/19 05:00:02;;;;;;;21.10;17.20;;;8.10;99.90;;;;;;5073002;28;22077;-47
2021/05/19 05:02:29;;;;;;;19.33;16.60;;;8.10;99.90;;;;;;5087327;28;20194;-45
2021/05/19 05:04:55;;;;;;;21.97;16.73;;;8.10;99.90;;;;;;5082232;28;20214;-47
2021/05/19 05:07:22;;;;;;;21.30;17.10;;;8.20;99.90;;;;;;5087386;28;20624;-45
2021/05/19 05:09:48;;;;;;;20.40;16.43;;;8.20;99.90;;;;;;5077528;28;20672;-48
2021/05/19 05:12:14;;;;;;;21.77;16.87;;;8.30;99.90;;;;;;5087552;28;20658;-48
2021/05/19 05:14:40;;;;;;;20.47;16.23;;;8.30;99.90;;;;;;5078879;28;20658;-46
2021/05/19 05:17:06;;;;;;;21.33;16.90;;;8.40;99.90;;;;;;5081268;28;20216;-45
2021/05/19 05:19:33;;;;;;;20.47;17.33;;;8.40;99.90;;;;;;5086759;28;20194;-50
2021/05/19 05:22:00;;;;;;;22.03;16.27;;;8.40;99.90;;;;;;5077483;28;20197;-44
2021/05/19 05:24:26;;;;;;;21.60;17.37;;;8.50;99.90;;;;;;5087044;28;20193;-44
2021/05/19 05:26:52;;;;;;;22.73;16.57;;;8.50;99.90;;;;;;5074678;28;20198;-44
2021/05/19 05:29:18;;;;;;;21.33;16.23;;;8.50;99.90;;;;;;5086779;28;20202;-47
2021/05/19 05:31:44;;;;;;;20.60;16.63;;;8.60;99.90;;;;;;5071850;28;20209;-50
2021/05/19 05:34:11;;;;;;;21.07;16.80;;;8.70;99.90;;;;;;5082582;28;20201;-47
2021/05/19 05:36:37;;;;;;;21.80;16.33;;;8.80;99.90;;;;;;5084029;28;20214;-43
2021/05/19 05:39:04;;;;;;;18.10;15.80;;;8.80;99.90;;;;;;5083438;28;20182;-46
2021/05/19 05:41:31;;;;;;;18.10;15.27;;;8.90;99.90;;;;;;5080460;28;20205;-47
2021/05/19 05:43:57;;;;;;;18.57;15.43;;;8.90;99.90;;;;;;5080337;28;20229;-49
2021/05/19 05:46:23;;;;;;;19.03;15.87;;;9.00;99.90;;;;;;5076104;28;20226;-47
2021/05/19 05:48:49;;;;;;;20.90;15.40;;;9.10;99.90;;;;;;5081934;28;20198;-45
2021/05/19 05:51:15;;;;;;;19.70;14.90;;;9.10;99.90;;;;;;5087560;28;20202;-50
2021/05/19 05:53:42;;;;;;;19.07;14.87;;;9.20;99.90;;;;;;5076675;28;20842;-45
2021/05/19 05:56:09;;;;;;;17.40;14.43;;;9.20;99.90;;;;;;5080440;28;20221;-45
2021/05/19 05:58:35;;;;;;;18.97;14.93;;;9.30;99.90;;;;;;5076395;28;20214;-46
2021/05/19 06:01:01;;;;;;;18.33;14.40;;;9.40;99.90;;;;;;5087829;28;20189;-45
2021/05/19 06:03:27;;;;;;;17.10;14.77;;;9.40;99.90;;;;;;5068559;28;20552;-46
2021/05/19 06:05:53;;;;;;;16.00;13.77;;;9.50;99.90;;;;;;5086770;28;20206;-45
2021/05/19 06:08:19;;;;;;;17.37;13.97;;;9.60;99.90;;;;;;5079134;28;20698;-48
2021/05/19 06:10:46;;;;;;;16.53;13.40;;;9.70;99.90;;;;;;5083335;28;20206;-45
2021/05/19 06:13:12;;;;;;;17.73;14.80;;;9.70;99.90;;;;;;5075573;28;20561;-47
2021/05/19 06:15:38;;;;;;;16.27;14.10;;;9.80;99.90;;;;;;5081814;28;20375;-44
2021/05/19 06:18:05;;;;;;;17.20;12.80;;;9.90;99.90;;;;;;5075002;28;20206;-47
2021/05/19 06:20:31;;;;;;;17.27;12.73;;;9.90;99.90;;;;;;5074900;28;20201;-46
2021/05/19 06:22:57;;;;;;;13.37;11.80;;;10.00;99.90;;;;;;5086507;28;20194;-46
2021/05/19 06:25:23;;;;;;;13.60;11.80;;;10.00;99.90;;;;;;5076651;28;20230;-46
2021/05/19 06:27:50;;;;;;;13.20;11.67;;;10.10;99.90;;;;;;5071934;28;20205;-44
2021/05/19 06:30:17;;;;;;;12.80;11.40;;;10.10;99.90;;;;;;5077490;28;20198;-46
2021/05/19 06:32:43;;;;;;;13.33;11.50;;;10.10;99.90;;;;;;5073430;28;20682;-44
2021/05/19 06:35:10;;;;;;;13.67;11.40;;;10.20;99.90;;;;;;5081999;28;20217;-45
2021/05/19 06:37:36;;;;;;;13.10;11.70;;;10.20;99.90;;;;;;5084148;28;20217;-47
2021/05/19 06:40:04;;;;;;;12.33;11.13;;;10.40;99.90;;;;;;5080730;28;20216;-47
2021/05/19 06:42:30;;;;;;;11.57;10.40;;;10.40;99.90;;;;;;5068536;28;20323;-44
2021/05/19 06:44:57;;;;;;;11.63;10.47;;;10.60;99.90;;;;;;5085195;28;20221;-46
2021/05/19 06:47:23;;;;;;;10.07;9.07;;;10.60;99.90;;;;;;5076036;28;20194;-48
2021/05/19 06:49:52;;;;;;;12.00;10.73;;;10.70;99.90;;;;;;5068117;28;20588;-44
2021/05/19 06:52:18;;;;;;;10.77;9.70;;;10.80;99.90;;;;;;5077329;28;20194;-49
2021/05/19 06:54:44;;;;;;;10.23;9.23;;;10.80;99.90;;;;;;5081156;28;20220;-45
2021/05/19 06:57:10;;;;;;;8.13;7.33;;;10.90;99.90;;;;;;5081273;28;20571;-48
2021/05/19 06:59:36;;;;;;;7.00;6.30;;;10.80;99.90;;;;;;5075927;28;20209;-46
2021/05/19 07:02:04;;;;;;;5.87;4.70;;;10.90;99.90;;;;;;5077461;28;20237;-45
2021/05/19 07:04:30;;;;;;;6.63;5.80;;;11.00;99.90;;;;;;5066482;28;23604;-46
2021/05/19 07:06:58;;;;;;;7.43;6.73;;;10.90;99.90;;;;;;5083156;28;20275;-45
2021/05/19 07:09:25;;;;;;;8.57;7.83;;;11.00;99.90;;;;;;5075539;28;20190;-47
2021/05/19 07:11:51;;;;;;;9.20;8.30;;;11.00;99.90;;;;;;5078089;28;20225;-45
2021/05/19 07:14:18;;;;;;;13.03;8.63;;;11.00;99.90;;;;;;5072191;28;21015;-45
2021/05/19 07:16:51;;;;;;;9.30;8.40;;;11.10;99.90;;;;;;5077167;28;20742;-47
2021/05/19 07:19:19;;;;;;;9.67;8.67;;;11.10;99.90;;;;;;5059867;28;20190;-45
2021/05/19 07:21:45;;;;;;;10.90;9.20;;;11.20;99.90;;;;;;5079380;28;20189;-48
2021/05/19 07:24:12;;;;;;;9.43;8.43;;;11.30;99.90;;;;;;5080248;28;20271;-45
2021/05/19 07:26:40;;;;;;;10.70;9.43;;;11.30;99.90;;;;;;5078098;28;20197;-45
2021/05/19 07:29:06;;;;;;;8.10;7.30;;;11.30;99.90;;;;;;5079999;28;20228;-46
2021/05/19 07:31:33;;;;;;;6.73;6.07;;;11.30;99.90;;;;;;5072656;28;20210;-49
2021/05/19 07:34:00;;;;;;;7.87;7.07;;;11.30;99.90;;;;;;5082440;28;20194;-44
2021/05/19 07:36:27;;;;;;;6.10;5.60;;;11.20;99.90;;;;;;5064656;28;20229;-45
2021/05/19 07:38:53;;;;;;;6.83;6.23;;;11.30;99.90;;;;;;5080161;28;20198;-47
2021/05/19 07:41:19;;;;;;;7.57;6.27;;;11.40;99.90;;;;;;5074231;28;20228;-44
2021/05/19 07:43:45;;;;;;;8.83;6.50;;;11.60;99.90;;;;;;5080991;28;20255;-47
2021/05/19 07:46:12;;;;;;;9.40;6.50;;;11.70;99.90;;;;;;5072262;28;20707;-49
2021/05/19 07:48:38;;;;;;;6.83;6.23;;;11.80;99.90;;;;;;5075035;28;20251;-46
2021/05/19 07:51:04;;;;;;;6.40;5.80;;;12.00;99.90;;;;;;5075529;28;20251;-47
2021/05/19 07:53:31;;;;;;;6.67;6.07;;;12.20;99.90;;;;;;5068285;28;20823;-48
2021/05/19 07:56:02;;;;;;;8.77;6.63;;;12.20;99.90;;;;;;5080077;28;20221;-52
2021/05/19 07:58:33;;;;;;;7.57;5.90;;;12.10;99.90;;;;;;5072947;28;20543;-47
2021/05/19 08:01:07;;;;;;;7.10;6.40;;;12.00;99.90;;;;;;5075213;28;20774;-45
2021/05/19 08:03:34;;;;;;;7.50;6.70;;;11.90;99.90;;;;;;5078509;28;20206;-47
2021/05/19 08:06:00;;;;;;;7.30;6.60;;;12.00;99.90;;;;;;5081984;28;20214;-51
2021/05/19 08:08:26;;;;;;;7.00;6.30;;;12.10;99.90;;;;;;5070785;28;20198;-46
2021/05/19 08:10:53;;;;;;;7.27;6.60;;;12.30;99.90;;;;;;5081083;28;20193;-45
2021/05/19 08:13:19;;;;;;;6.50;5.50;;;12.40;99.90;;;;;;5080393;28;20250;-47
2021/05/19 08:15:45;;;;;;;5.97;5.23;;;12.60;99.90;;;;;;5081431;28;20206;-45
2021/05/19 08:18:12;;;;;;;6.67;5.97;;;12.60;99.90;;;;;;5069322;28;20208;-47
2021/05/19 08:20:39;;;;;;;7.37;5.50;;;12.60;99.90;;;;;;5081843;28;20580;-48
2021/05/19 08:23:05;;;;;;;6.13;5.57;;;12.40;99.90;;;;;;5068788;28;20198;-48
2021/05/19 08:25:32;;;;;;;6.20;5.60;;;12.50;99.90;;;;;;5082344;28;20878;-48
2021/05/19 08:27:59;;;;;;;7.50;6.80;;;12.60;99.90;;;;;;5081958;28;20208;-48
2021/05/19 08:30:26;;;;;;;6.50;5.80;;;12.70;99.90;;;;;;5083451;28;20836;-45
2021/05/19 08:32:52;;;;;;;7.30;5.60;;;12.80;99.90;;;;;;5079292;28;20229;-50
2021/05/19 08:35:19;;;;;;;7.50;6.23;;;12.80;99.90;;;;;;5075510;28;20978;-45
2021/05/19 08:37:45;;;;;;;5.73;5.27;;;12.80;99.90;;;;;;5080200;28;20230;-50
2021/05/19 08:40:12;;;;;;;5.10;4.70;;;13.10;99.90;;;;;;5062357;28;20198;-46
2021/05/19 08:42:39;;;;;;;5.07;4.67;;;13.10;99.90;;;;;;5078943;28;20271;-49
2021/05/19 08:45:08;;;;;;;5.47;4.97;;;13.10;99.90;;;;;;5072901;28;20291;-50
2021/05/19 08:47:35;;;;;;;8.20;5.27;;;13.10;99.90;;;;;;5077502;28;20198;-47
2021/05/19 08:50:03;;;;;;;6.20;5.00;;;13.10;99.90;;;;;;5071463;28;20205;-52
2021/05/19 08:52:29;;;;;;;6.27;5.67;;;13.00;99.90;;;;;;5074881;28;20202;-49
2021/05/19 08:54:56;;;;;;;4.30;3.90;;;13.00;99.90;;;;;;5076337;28;20702;-47
2021/05/19 08:57:22;;;;;;;4.83;4.33;;;13.00;99.90;;;;;;5069591;28;20371;-48
2021/05/19 08:59:49;;;;;;;4.47;4.07;;;13.10;99.90;;;;;;5075969;28;20198;-49
2021/05/19 09:02:17;;;;;;;4.60;4.20;;;13.10;99.90;;;;;;5080205;28;20182;-47
2021/05/19 09:04:44;;;;;;;4.60;4.20;;;13.40;99.90;;;;;;5078862;28;20314;-48
2021/05/19 09:07:18;;;;;;;4.40;4.00;;;13.50;99.90;;;;;;5075121;28;20251;-49
2021/05/19 09:09:46;;;;;;;4.40;4.00;;;13.80;99.90;;;;;;5082280;28;20603;-44
2021/05/19 09:12:14;;;;;;;5.47;4.70;;;13.70;99.90;;;;;;5066166;28;20807;-45
2021/05/19 09:14:42;;;;;;;5.97;4.97;;;13.80;99.90;;;;;;5074268;28;20232;-48
2021/05/19 09:17:24;;;;;;;5.53;4.87;;;13.80;99.90;;;;;;5080225;28;20989;-47
2021/05/19 09:19:52;;;;;;;5.30;4.60;;;13.90;99.90;;;;;;5068992;28;20225;-48
2021/05/19 09:22:20;;;;;;;4.10;3.57;;;13.80;99.90;;;;;;5071575;28;20574;-44
2021/05/19 09:24:47;;;;;;;4.40;4.00;;;13.70;99.90;;;;;;5077305;28;20218;-44
2021/05/19 09:27:14;;;;;;;4.80;4.37;;;13.70;99.90;;;;;;5069051;28;20678;-46
2021/05/19 09:29:45;;;;;;;4.57;4.07;;;13.70;99.90;;;;;;5075073;28;20212;-47
2021/05/19 09:32:13;;;;;;;4.97;3.67;;;13.70;99.90;;;;;;5082795;28;20217;-44
2021/05/19 09:34:42;;;;;;;4.80;4.33;;;13.90;99.90;;;;;;5081723;28;20282;-46
2021/05/19 09:37:14;;;;;;;4.47;4.07;;;14.10;99.90;;;;;;5071628;28;20228;-48
2021/05/19 09:39:45;;;;;;;4.63;4.07;;;14.20;99.90;;;;;;5083289;28;20562;-45
2021/05/19 09:42:11;;;;;;;5.33;3.80;;;14.10;99.90;;;;;;5077622;28;20263;-45
2021/05/19 09:44:37;;;;;;;6.57;4.00;;;14.20;99.90;;;;;;5073303;28;20221;-45
2021/05/19 09:47:04;;;;;;;4.73;3.93;;;14.10;99.90;;;;;;5073057;28;20208;-46
2021/05/19 09:49:30;;;;;;;6.67;4.27;;;13.90;99.90;;;;;;5072542;28;20214;-46
2021/05/19 09:51:58;;;;;;;4.10;3.70;;;14.00;99.90;;;;;;5075886;28;20194;-44
2021/05/19 09:54:32;;;;;;;4.17;3.77;;;14.20;99.90;;;;;;5080457;28;20206;-48
2021/05/19 09:57:00;;;;;;;4.60;3.30;;;;;;;;;;5084524;28;20724;-45
2021/05/19 09:59:27;;;;;;;4.00;3.70;;;14.50;99.90;;;;;;5073603;28;20247;-49
2021/05/19 10:01:54;;;;;;;4.83;3.63;;;14.50;99.90;;;;;;5077063;28;20251;-45
2021/05/19 10:04:27;;;;;;;3.87;3.60;;;;;;;;;;5085818;28;20222;-49
2021/05/19 10:06:54;;;;;;;3.67;3.30;;;14.50;99.90;;;;;;5070830;28;20202;-45
2021/05/19 10:09:21;;;;;;;3.60;3.30;;;14.50;99.90;;;;;;5084210;28;20230;-47
2021/05/19 10:11:47;;;;;;;3.93;3.53;;;14.50;99.90;;;;;;5084637;28;20955;-45
2021/05/19 10:14:14;;;;;;;3.60;3.30;;;14.60;99.90;;;;;;5074218;28;20198;-47
2021/05/19 10:16:44;;;;;;;3.63;3.33;;;14.50;99.90;;;;;;5072135;28;20711;-46
2021/05/19 10:19:13;;;;;;;4.23;3.63;;;14.40;99.90;;;;;;5072019;28;20194;-46
2021/05/19 10:21:41;;;;;;;4.77;3.53;;;14.40;99.90;;;;;;5080717;28;20189;-46
2021/05/19 10:24:10;;;;;;;2.97;2.77;;;14.40;99.90;;;;;;5081760;28;20914;-48
2021/05/19 10:27:05;;;;;;;2.90;2.20;;;14.40;99.90;;;;;;5084897;28;20202;-47
2021/05/19 10:29:57;;;;;;;2.43;2.23;;;14.40;99.90;;;;;;5078250;28;20197;-44
2021/05/19 10:32:31;;;;;;;2.47;2.27;;;14.60;99.90;;;;;;5075850;28;20544;-47
2021/05/19 10:34:58;;;;;;;2.90;2.53;;;14.60;99.90;;;;;;5071899;28;20943;-44
2021/05/19 10:37:35;;;;;;;2.90;2.60;;;14.60;99.90;;;;;;5071721;28;20217;-46
2021/05/19 10:40:29;;;;;;;4.10;2.20;;;14.50;99.90;;;;;;5078968;28;20433;-46
2021/05/19 10:43:01;;;;;;;3.23;2.93;;;14.60;99.90;;;;;;5084518;28;20430;-47
2021/05/19 10:45:28;;;;;;;2.70;2.50;;;14.80;99.90;;;;;;5073453;28;20225;-48
2021/05/19 10:47:54;;;;;;;2.57;2.37;;;14.80;99.90;;;;;;5054305;28;20308;-46
2021/05/19 10:50:28;;;;;;;3.77;2.47;;;15.00;99.90;;;;;;5071577;28;20588;-46
2021/05/19 10:58:46;;;;;;;2.13;1.90;;;15.30;99.90;;;;;;5080526;28;20307;-50
2021/05/19 11:01:12;;;;;;;2.37;2.00;;;15.40;99.90;;;;;;5080664;28;20283;-47
2021/05/19 11:03:39;;;;;;;2.73;2.20;;;15.50;99.90;;;;;;5067207;28;20271;-51
2021/05/19 11:06:11;;;;;;;5.40;2.97;;;15.70;99.90;;;;;;5071901;28;20231;-46
2021/05/19 11:08:39;;;;;;;2.00;1.80;;;15.80;99.90;;;;;;5076943;28;20208;-49
2021/05/19 11:11:16;;;;;;;2.20;1.83;;;15.70;99.90;;;;;;5075499;28;20206;-47
2021/05/19 11:14:03;;;;;;;1.90;1.80;;;15.70;99.90;;;;;;5074856;28;20194;-54
2021/05/19 11:16:48;;;;;;;2.10;1.90;;;15.40;99.70;;;;;;5078400;28;20746;-52
2021/05/19 11:19:33;;;;;;;2.27;1.80;;;15.50;99.90;;;;;;5076293;28;20213;-54
2021/05/19 11:22:01;;;;;;;6.20;3.17;;;15.60;99.90;;;;;;5072572;28;20466;-49
2021/05/19 11:24:27;;;;;;;2.50;2.30;;;15.70;99.80;;;;;;5075258;28;20294;-53
2021/05/19 11:26:55;;;;;;;3.53;1.90;;;15.70;99.80;;;;;;5072946;28;20194;-54
2021/05/19 11:29:23;;;;;;;2.47;1.97;;;15.80;99.70;;;;;;5081270;28;20203;-52
2021/05/19 11:31:55;;;;;;;4.77;2.30;;;15.60;99.20;;;;;;5075189;28;20225;-53
2021/05/19 11:34:25;;;;;;;1.70;1.60;;;15.50;99.40;;;;;;5068715;28;20248;-52
2021/05/19 11:36:54;;;;;;;1.97;1.83;;;15.40;99.70;;;;;;5074944;28;20230;-52
2021/05/19 11:39:22;;;;;;;2.90;2.07;;;15.40;99.90;;;;;;5080622;28;20210;-51
2021/05/19 11:41:49;;;;;;;2.33;2.13;;;15.40;99.90;;;;;;5071730;28;20595;-52
2021/05/19 11:44:34;;;;;;;1.53;1.20;;;15.30;99.90;;;;;;5080807;28;20552;-49
2021/05/19 11:47:00;;;;;;;2.70;1.27;;;15.30;99.40;;;;;;5077910;28;20182;-46
2021/05/19 11:49:27;;;;;;;1.70;1.60;;;15.20;99.20;;;;;;5062877;28;20202;-50
2021/05/19 11:51:53;;;;;;;2.33;1.70;;;15.20;99.90;;;;;;5074463;28;20192;-49
2021/05/19 11:54:21;;;;;;;2.83;1.93;;;15.20;99.90;;;;;;5085386;28;20268;-46
2021/05/19 11:56:48;;;;;;;2.37;2.03;;;15.20;99.90;;;;;;5077406;28;20562;-47
2021/05/19 11:59:16;;;;;;;4.07;2.17;;;15.00;99.90;;;;;;5081177;28;20205;-47
2021/05/19 12:01:57;;;;;;;1.97;1.87;;;14.90;99.90;;;;;;5080952;28;20239;-48
2021/05/19 12:04:24;;;;;;;2.40;2.03;;;14.90;99.90;;;;;;5072532;28;20560;-50
2021/05/19 12:06:50;;;;;;;1.90;1.77;;;15.00;99.90;;;;;;5076317;28;20781;-56
2021/05/19 12:09:17;;;;;;;2.87;1.80;;;15.00;99.90;;;;;;5083139;28;20547;-49
2021/05/19 12:11:45;;;;;;;2.00;1.80;;;15.10;99.90;;;;;;5076406;28;20198;-51
2021/05/19 12:14:11;;;;;;;1.83;1.73;;;15.10;99.90;;;;;;5082057;28;20193;-48
2021/05/19 12:16:40;;;;;;;2.00;1.87;;;15.20;99.90;;;;;;5081774;28;20299;-51
2021/05/19 12:19:10;;;;;;;1.93;1.83;;;15.50;99.90;;;;;;5073110;28;20833;-47
2021/05/19 12:21:39;;;;;;;2.00;1.90;;;15.60;99.90;;;;;;5068799;28;20241;-49
2021/05/19 12:24:07;;;;;;;1.90;1.80;;;15.70;99.90;;;;;;5075536;28;20204;-48
2021/05/19 12:26:34;;;;;;;1.80;1.60;;;15.70;99.90;;;;;;5076327;28;20708;-47
2021/05/19 12:29:01;;;;;;;1.90;1.80;;;15.80;99.90;;;;;;5079787;28;20434;-48
2021/05/19 12:31:29;;;;;;;1.93;1.80;;;15.90;99.90;;;;;;5081328;28;20251;-53
2021/05/19 12:33:55;;;;;;;1.50;1.40;;;15.80;99.90;;;;;;5068651;28;20194;-50
2021/05/19 12:36:30;;;;;;;2.03;1.47;;;15.70;99.90;;;;;;5070604;28;20217;-47
2021/05/19 12:38:59;;;;;;;1.30;1.30;;;15.60;99.90;;;;;;5073883;28;20201;-49
2021/05/19 12:41:53;;;;;;;4.43;1.67;;;15.50;99.90;;;;;;5073535;28;20201;-48
2021/05/19 12:44:25;;;;;;;2.67;1.57;;;15.60;99.90;;;;;;5055197;28;20687;-49
2021/05/19 12:47:05;;;;;;;1.63;1.53;;;15.60;99.90;;;;;;5077950;28;20296;-51
2021/05/19 12:49:31;;;;;;;1.80;1.67;;;15.70;99.90;;;;;;5080537;28;20202;-48
2021/05/19 12:52:00;;;;;;;3.40;1.83;;;15.90;99.90;;;;;;5067398;28;20847;-47
2021/05/19 12:54:32;;;;;;;2.97;1.53;;;16.10;99.90;;;;;;5073990;28;20221;-48
2021/05/19 12:57:00;;;;;;;2.93;2.00;;;16.20;99.90;;;;;;5065667;28;21048;-48